Washington Dulles International Airport
KIAD : now visible

Airfield :











YOU CAN JOIN US ON...

 
LOGIN :

Register | Disclaimer

   EN    FR    IT 

 









Legend :    VFR   Marginal VFR   IFR   Intensive IFR   Very Intensive IFR
Visi :
Ceiling :
>= 8 km
>= 3000ft
5 to 8 km
1000 to 3000 ft
1500m to 5 km
500 to 1000 ft
800 to 1500m
200 to 500 ft
< 800m
< 200 ft
Symbols :   Thunderstorms  Fog  Heavy snow  Heavy precipitations  Wind > 20 kt






- Airport Elevation : 312 ft
- IATA code : IAD


KIAD - Washington Dulles International

CURRENT METAR :
  • 272152Z 21008KT 10SM FEW250 25/12 A2993 RMK AO2 SLP135 T02500122

EXPIRED METARs :
  • 272052Z 20011KT 10SM FEW250 26/11 A2994 RMK AO2 SLP136 T02610111 56021
  • 271952Z 19011KT 10SM FEW250 27/11 A2995 RMK AO2 SLP141 T02670111

TAF KIAD
Valid from the 27 at 18:00 until the 29 at 00:00 UTC


271728Z 2718/2824 20007G15KT P6SM FEW150
FM272200 20006KT P6SM FEW150
FM280700 23003KT P6SM FEW250
FM281500 27009KT P6SM SCT070
FM282200 30005KT P6SM SCT060
KZDC FIR / North America



MET'MAP, your aeronautical weather chart ! - Copyright ORBIFLY December 2007 - Disclaimer

ORBIFLY MET'MAP TEAM :

Programming & Development : Alexandra Zaïnal
Concept & original design : Baudouin d'Aumeries
Assistance for programming : Marc-Olivier Méhu
Technical & hardware support : Manuel Goepfert

Contact : metmap@orbifly.com




SOURCES & CREDITS :

   NOAA       Earth
Advisory